createdAt,value
2022-08-20T00:00:14.490Z,20.20
2022-08-20T00:05:40.686Z,20.00
2022-08-20T00:11:05.602Z,20.30
2022-08-20T00:16:32.398Z,20.30
2022-08-20T00:21:55.740Z,20.40
2022-08-20T00:27:20.598Z,20.50
2022-08-20T00:32:48.709Z,20.50
2022-08-20T00:38:11.401Z,20.60
2022-08-20T00:43:57.697Z,20.60
2022-08-20T00:49:32.055Z,20.40
2022-08-20T00:54:59.217Z,20.60
2022-08-20T01:00:25.657Z,20.70
2022-08-20T01:05:50.567Z,20.60
2022-08-20T01:11:16.795Z,20.50
2022-08-20T01:16:40.610Z,20.50
2022-08-20T01:22:24.964Z,20.40
2022-08-20T01:27:54.054Z,20.50
2022-08-20T01:33:20.131Z,20.60
2022-08-20T01:38:54.225Z,20.50
2022-08-20T01:44:18.623Z,20.50
2022-08-20T01:49:45.837Z,20.30
2022-08-20T01:55:09.719Z,20.10
2022-08-20T02:00:32.621Z,20.20
2022-08-20T02:05:54.757Z,20.00
2022-08-20T02:11:17.117Z,20.00
2022-08-20T02:16:42.909Z,20.00
2022-08-20T02:22:34.479Z,19.80
2022-08-20T02:27:57.970Z,19.80
2022-08-20T02:33:24.223Z,19.80
2022-08-20T02:38:46.725Z,19.70
2022-08-20T02:44:09.430Z,19.40
2022-08-20T02:49:31.796Z,19.30
2022-08-20T02:54:53.941Z,19.00
2022-08-20T03:00:21.166Z,19.00
2022-08-20T03:05:44.607Z,19.10
2022-08-20T03:11:06.959Z,19.10
2022-08-20T03:16:29.142Z,19.40
2022-08-20T03:21:51.422Z,19.50
2022-08-20T03:27:13.938Z,19.40
2022-08-20T03:32:36.483Z,19.20
2022-08-20T03:37:58.689Z,19.10
2022-08-20T03:43:20.820Z,19.30
2022-08-20T03:48:43.175Z,19.20
2022-08-20T03:54:05.343Z,19.40
2022-08-20T03:59:27.507Z,19.30
2022-08-20T04:04:49.666Z,19.40
2022-08-20T04:10:13.626Z,19.60
2022-08-20T04:15:37.203Z,19.70
2022-08-20T04:20:59.308Z,19.50
2022-08-20T04:26:22.391Z,19.30
2022-08-20T04:31:44.608Z,19.30
2022-08-20T04:37:16.618Z,19.20
2022-08-20T04:42:39.617Z,19.20
2022-08-20T04:48:05.534Z,19.10
2022-08-20T04:53:28.519Z,19.20
2022-08-20T04:58:52.299Z,19.40
2022-08-20T05:04:14.462Z,19.70
2022-08-20T05:09:44.178Z,20.20
2022-08-20T05:15:07.154Z,20.90
2022-08-20T05:20:31.396Z,21.90
2022-08-20T05:25:53.522Z,22.50
2022-08-20T05:31:15.634Z,22.10
2022-08-20T05:36:46.982Z,22.10
2022-08-20T05:42:11.534Z,22.20
2022-08-20T05:47:35.426Z,22.40
2022-08-20T05:53:05.702Z,22.50
2022-08-20T05:58:31.099Z,22.70
2022-08-20T06:04:11.777Z,22.90
2022-08-20T06:09:35.130Z,22.70
2022-08-20T06:14:57.258Z,22.50
2022-08-20T06:20:19.420Z,22.60
2022-08-20T06:25:41.585Z,23.20
2022-08-20T06:31:04.411Z,23.40
2022-08-20T06:36:27.452Z,23.70
2022-08-20T06:41:51.489Z,23.60
2022-08-20T06:47:17.196Z,23.70
2022-08-20T06:53:03.158Z,23.50
2022-08-20T06:58:37.728Z,23.10
2022-08-20T07:04:01.935Z,23.00
2022-08-20T07:09:26.852Z,23.00
2022-08-20T07:14:50.029Z,23.10
2022-08-20T07:20:15.761Z,23.10
2022-08-20T07:25:42.317Z,23.50
2022-08-20T07:31:23.817Z,23.70
2022-08-20T07:36:49.246Z,24.00
2022-08-20T07:42:13.241Z,23.90
2022-08-20T07:47:36.516Z,24.10
2022-08-20T07:53:01.619Z,24.10
2022-08-20T07:58:27.643Z,24.20
2022-08-20T08:03:57.943Z,24.50
2022-08-20T08:09:21.097Z,24.50
2022-08-20T08:14:46.931Z,24.70
2022-08-20T08:20:12.667Z,25.00
2022-08-20T08:25:35.672Z,25.10
2022-08-20T08:30:59.662Z,25.30
2022-08-20T08:36:27.719Z,26.00
2022-08-20T08:41:52.235Z,26.30
2022-08-20T08:47:30.144Z,26.90
2022-08-20T08:53:00.778Z,27.80
2022-08-20T08:58:23.868Z,27.40
2022-08-20T09:03:52.060Z,27.80
2022-08-20T09:09:23.020Z,27.90
2022-08-20T09:14:48.343Z,27.90
2022-08-20T09:20:14.696Z,27.80
2022-08-20T09:25:39.924Z,27.30
2022-08-20T09:31:05.136Z,28.10
2022-08-20T09:36:32.598Z,29.40
2022-08-20T09:41:55.686Z,29.10
2022-08-20T09:47:19.064Z,28.80
2022-08-20T09:52:53.658Z,28.90
2022-08-20T09:58:22.310Z,28.60
2022-08-20T10:03:48.447Z,29.30
2022-08-20T10:09:11.420Z,29.40
2022-08-20T10:14:34.394Z,30.20
2022-08-20T10:19:57.156Z,30.50
2022-08-20T10:25:20.229Z,30.80
2022-08-20T10:30:43.714Z,30.10
2022-08-20T10:36:12.225Z,30.50
2022-08-20T10:41:38.857Z,30.00
2022-08-20T10:47:14.542Z,29.40
2022-08-20T10:52:37.711Z,29.10
2022-08-20T10:58:00.576Z,29.40
2022-08-20T11:03:23.445Z,29.30
2022-08-20T11:08:46.620Z,29.00
2022-08-20T11:14:11.206Z,29.40
2022-08-20T11:19:38.601Z,28.90
2022-08-20T11:25:01.575Z,29.10
2022-08-20T11:30:30.687Z,28.70
2022-08-20T11:35:53.561Z,28.70
2022-08-20T11:41:17.239Z,29.20
2022-08-20T11:46:39.902Z,29.60
2022-08-20T11:52:02.981Z,28.90
2022-08-20T11:57:29.842Z,28.80
2022-08-20T12:02:52.751Z,28.90
2022-08-20T12:08:26.968Z,28.80
2022-08-20T12:13:50.724Z,29.10
2022-08-20T12:19:13.386Z,29.00
2022-08-20T12:24:37.512Z,28.40
2022-08-20T12:30:03.203Z,28.20
2022-08-20T12:35:26.907Z,28.40
2022-08-20T12:40:49.958Z,28.00
2022-08-20T12:46:12.765Z,28.10
2022-08-20T12:51:35.948Z,27.80
2022-08-20T12:56:58.801Z,26.80
2022-08-20T13:02:21.347Z,26.10
2022-08-20T13:07:45.060Z,25.80
2022-08-20T13:13:07.698Z,25.20
2022-08-20T13:18:30.466Z,24.70
2022-08-20T13:23:53.121Z,24.40
2022-08-20T13:29:16.603Z,23.90
2022-08-20T13:34:39.783Z,23.50
2022-08-20T13:40:02.799Z,23.00
2022-08-20T13:45:25.922Z,22.60
2022-08-20T13:50:48.800Z,22.10
2022-08-20T13:56:11.356Z,21.70
2022-08-20T14:01:37.342Z,21.30
2022-08-20T14:07:22.889Z,21.10
2022-08-20T14:12:45.451Z,20.90
2022-08-20T14:18:08.225Z,20.90
2022-08-20T14:23:30.780Z,21.00
2022-08-20T14:28:59.484Z,21.00
2022-08-20T14:34:22.148Z,21.00
2022-08-20T14:39:46.411Z,20.90
2022-08-20T14:45:10.548Z,20.70
2022-08-20T14:50:34.954Z,20.60
2022-08-20T14:55:58.120Z,20.80
2022-08-20T15:01:21.977Z,20.70
2022-08-20T15:06:45.089Z,20.50
2022-08-20T15:12:08.154Z,20.70
2022-08-20T15:17:30.617Z,20.80
2022-08-20T15:22:53.834Z,20.50
2022-08-20T15:28:16.764Z,20.50
2022-08-20T15:33:40.341Z,20.60
2022-08-20T15:39:03.008Z,20.60
2022-08-20T15:44:25.670Z,20.70
2022-08-20T15:49:50.586Z,20.60
2022-08-20T15:55:16.427Z,20.60
2022-08-20T16:00:50.682Z,20.20
2022-08-20T16:06:18.444Z,20.20
2022-08-20T16:11:47.247Z,20.20
2022-08-20T16:17:15.949Z,20.10
2022-08-20T16:22:44.958Z,20.20
2022-08-20T16:28:24.843Z,20.10
2022-08-20T16:34:34.398Z,20.10
2022-08-20T16:40:16.705Z,20.20
2022-08-20T16:46:00.168Z,20.20
2022-08-20T16:51:38.614Z,20.00
2022-08-20T16:57:04.443Z,20.10
2022-08-20T17:02:27.101Z,19.80
2022-08-20T17:08:00.139Z,19.50
2022-08-20T17:13:30.658Z,19.40
2022-08-20T17:18:54.340Z,19.30
2022-08-20T17:24:20.585Z,19.20
2022-08-20T17:29:57.175Z,19.30
2022-08-20T17:35:43.994Z,19.30
2022-08-20T17:41:34.416Z,19.20
2022-08-20T17:46:59.335Z,19.20
2022-08-20T17:52:34.594Z,19.20
2022-08-20T17:58:01.670Z,19.20
2022-08-20T18:03:26.768Z,18.90
2022-08-20T18:09:16.594Z,18.80
2022-08-20T18:15:06.184Z,18.70
2022-08-20T18:20:53.209Z,18.50
2022-08-20T18:26:28.506Z,18.50
2022-08-20T18:31:56.155Z,18.50
2022-08-20T18:37:19.042Z,18.60
2022-08-20T18:42:42.196Z,18.80
2022-08-20T18:48:06.191Z,18.70
2022-08-20T18:53:34.187Z,18.70
2022-08-20T18:59:13.829Z,18.60
2022-08-20T19:04:39.569Z,18.60
2022-08-20T19:10:31.103Z,18.70
2022-08-20T19:16:02.277Z,18.40
2022-08-20T19:21:36.084Z,18.30
2022-08-20T19:27:12.890Z,18.50
2022-08-20T19:32:38.741Z,18.60
2022-08-20T19:38:16.855Z,18.60
2022-08-20T19:43:45.244Z,18.50
2022-08-20T19:49:30.538Z,18.60
2022-08-20T19:55:01.310Z,18.50
2022-08-20T20:00:30.325Z,18.40
2022-08-20T20:06:02.494Z,18.40
2022-08-20T20:11:47.494Z,18.40
2022-08-20T20:17:14.556Z,18.30
2022-08-20T20:22:56.801Z,18.40
2022-08-20T20:28:25.288Z,18.50
2022-08-20T20:33:54.689Z,18.50
2022-08-20T20:39:31.283Z,18.60
2022-08-20T20:44:54.764Z,18.70
2022-08-20T20:50:37.699Z,18.70
2022-08-20T20:56:04.061Z,18.70
2022-08-20T21:01:49.604Z,18.70
2022-08-20T21:07:14.292Z,18.80
2022-08-20T21:12:37.742Z,18.90
2022-08-20T21:18:02.558Z,18.90
2022-08-20T21:23:41.272Z,18.90
2022-08-20T21:29:09.688Z,19.10
2022-08-20T21:34:32.894Z,19.10
2022-08-20T21:39:56.120Z,19.20
2022-08-20T21:45:19.810Z,19.20
2022-08-20T21:50:44.286Z,19.20
2022-08-20T21:56:08.337Z,19.20
2022-08-20T22:01:32.694Z,19.10
2022-08-20T22:06:55.136Z,19.00
2022-08-20T22:12:24.927Z,19.00
2022-08-20T22:17:47.066Z,18.90
2022-08-20T22:23:09.938Z,19.00
2022-08-20T22:28:32.606Z,19.00
2022-08-20T22:33:56.257Z,18.80
2022-08-20T22:39:18.386Z,19.00
2022-08-20T22:44:40.535Z,19.10
2022-08-20T22:50:03.615Z,19.20
2022-08-20T22:55:25.820Z,19.20
2022-08-20T23:00:49.361Z,19.20
2022-08-20T23:06:13.003Z,19.30
2022-08-20T23:11:35.236Z,19.20
2022-08-20T23:17:13.648Z,19.00
2022-08-20T23:22:36.198Z,19.00
2022-08-20T23:28:03.964Z,19.00
2022-08-20T23:33:26.504Z,18.90
2022-08-20T23:38:49.236Z,19.00
2022-08-20T23:44:26.344Z,19.10
2022-08-20T23:49:49.496Z,19.10
2022-08-20T23:55:12.068Z,19.10
